createdAt,value
2018-10-06T00:01:31.437Z,99863.27
2018-10-06T00:03:59.829Z,99860.56
2018-10-06T00:06:28.302Z,99855.34
2018-10-06T00:08:56.890Z,99858.03
2018-10-06T00:11:25.369Z,99859.91
2018-10-06T00:13:54.006Z,99857.99
2018-10-06T00:16:22.518Z,99855.50
2018-10-06T00:18:51.013Z,99856.33
2018-10-06T00:21:19.518Z,99849.25
2018-10-06T00:23:47.902Z,99850.90
2018-10-06T00:26:16.395Z,99851.13
2018-10-06T00:28:44.790Z,99852.45
2018-10-06T00:31:13.321Z,99847.84
2018-10-06T00:33:41.757Z,99846.48
2018-10-06T00:36:10.173Z,99847.82
2018-10-06T00:38:38.581Z,99838.27
2018-10-06T00:41:07.055Z,99832.02
2018-10-06T00:43:35.482Z,99837.13
2018-10-06T00:46:03.991Z,99828.95
2018-10-06T00:48:32.430Z,99839.80
2018-10-06T00:51:00.852Z,99831.09
2018-10-06T00:53:29.245Z,99835.07
2018-10-06T00:55:57.707Z,99830.49
2018-10-06T00:58:26.189Z,99829.09
2018-10-06T01:00:54.586Z,99825.28
2018-10-06T01:03:23.071Z,99816.83
2018-10-06T01:05:51.489Z,99809.01
2018-10-06T01:08:19.934Z,99799.23
2018-10-06T01:10:48.371Z,99802.70
2018-10-06T01:13:16.788Z,99805.66
2018-10-06T01:15:45.218Z,99809.44
2018-10-06T01:18:13.649Z,99799.89
2018-10-06T01:20:42.054Z,99796.35
2018-10-06T01:23:10.513Z,99790.36
2018-10-06T01:25:38.909Z,99783.58
2018-10-06T01:28:07.297Z,99792.31
2018-10-06T01:30:36.236Z,99787.42
2018-10-06T01:33:05.088Z,99787.69
2018-10-06T01:35:33.922Z,99781.23
2018-10-06T01:41:11.000Z,99773.22
2018-10-06T01:43:39.856Z,99779.56
2018-10-06T01:46:30.069Z,99778.53
2018-10-06T01:48:58.975Z,99773.61
2018-10-06T01:51:31.481Z,99772.81
2018-10-06T01:54:00.444Z,99772.55
2018-10-06T01:56:32.749Z,99775.50
2018-10-06T01:59:01.592Z,99767.91
2018-10-06T02:01:32.124Z,99762.43
2018-10-06T02:05:09.372Z,99765.11
2018-10-06T02:07:38.140Z,99753.12
2018-10-06T02:10:07.082Z,99754.45
2018-10-06T02:21:22.998Z,99745.66
2018-10-06T02:23:51.666Z,99737.53
2018-10-06T02:26:20.268Z,99736.69
2018-10-06T02:28:48.813Z,99734.24
2018-10-06T02:31:17.260Z,99726.39
2018-10-06T02:33:45.640Z,99725.03
2018-10-06T02:36:14.053Z,99719.66
2018-10-06T02:38:42.506Z,99728.56
2018-10-06T02:41:10.901Z,99728.25
2018-10-06T02:43:39.354Z,99720.92
2018-10-06T02:46:07.766Z,99721.70
2018-10-06T02:48:36.214Z,99713.84
2018-10-06T02:51:04.908Z,99718.73
2018-10-06T02:53:33.305Z,99716.52
2018-10-06T02:56:01.723Z,99718.75
2018-10-06T02:58:30.185Z,99712.80
2018-10-06T03:00:58.621Z,99716.02
2018-10-06T03:03:27.026Z,99706.20
2018-10-06T03:05:55.438Z,99704.22
2018-10-06T03:08:23.957Z,99703.39
2018-10-06T03:10:52.361Z,99708.30
2018-10-06T03:13:20.775Z,99697.02
2018-10-06T03:15:49.218Z,99691.09
2018-10-06T03:18:17.671Z,99688.45
2018-10-06T03:20:46.110Z,99686.25
2018-10-06T03:23:14.489Z,99672.38
2018-10-06T03:25:42.927Z,99672.91
2018-10-06T03:28:11.316Z,99669.45
2018-10-06T03:30:39.762Z,99667.27
2018-10-06T03:33:08.229Z,99673.20
2018-10-06T03:35:36.626Z,99670.25
2018-10-06T03:38:05.054Z,99667.85
2018-10-06T03:40:33.511Z,99664.05
2018-10-06T03:43:02.032Z,99663.55
2018-10-06T03:45:30.502Z,99658.47
2018-10-06T03:47:58.963Z,99656.06
2018-10-06T03:50:27.655Z,99648.02
2018-10-06T03:52:56.198Z,99649.95
2018-10-06T03:55:24.689Z,99642.13
2018-10-06T03:57:53.134Z,99640.80
2018-10-06T04:00:21.570Z,99640.26
2018-10-06T04:02:50.005Z,99636.45
2018-10-06T04:05:18.426Z,99636.21
2018-10-06T04:07:46.859Z,99640.27
2018-10-06T04:10:15.328Z,99638.69
2018-10-06T04:12:43.818Z,99630.88
2018-10-06T04:15:12.266Z,99633.91
2018-10-06T04:17:40.684Z,99624.45
2018-10-06T04:20:09.114Z,99624.73
2018-10-06T04:22:37.497Z,99614.44
2018-10-06T04:25:06.182Z,99606.59
2018-10-06T04:27:34.566Z,99609.84
2018-10-06T04:30:03.045Z,99603.89
2018-10-06T04:32:31.457Z,99606.30
2018-10-06T04:34:59.926Z,99610.66
2018-10-06T04:37:28.341Z,99601.15
2018-10-06T04:39:56.778Z,99602.48
2018-10-06T04:42:25.243Z,99592.75
2018-10-06T04:44:53.649Z,99599.53
2018-10-06T04:47:22.113Z,99600.33
2018-10-06T04:49:50.537Z,99593.81
2018-10-06T04:52:18.946Z,99599.75
2018-10-06T04:54:47.402Z,99599.44
2018-10-06T04:57:15.850Z,99598.84
2018-10-06T04:59:44.269Z,99592.84
2018-10-06T05:02:15.757Z,99592.31
2018-10-06T05:04:44.501Z,99596.97
2018-10-06T05:07:12.909Z,99593.50
2018-10-06T05:09:41.316Z,99584.55
2018-10-06T05:12:09.926Z,99584.30
2018-10-06T05:14:38.353Z,99590.28
2018-10-06T05:17:06.789Z,99595.97
2018-10-06T05:19:35.205Z,99590.00
2018-10-06T05:22:03.598Z,99598.42
2018-10-06T05:24:32.012Z,99592.98
2018-10-06T05:27:00.402Z,99587.02
2018-10-06T05:29:28.895Z,99581.28
2018-10-06T05:31:57.273Z,99579.94
2018-10-06T05:34:25.664Z,99577.48
2018-10-06T05:36:54.089Z,99575.58
2018-10-06T05:39:22.496Z,99572.31
2018-10-06T05:41:50.886Z,99572.58
2018-10-06T05:44:19.339Z,99576.41
2018-10-06T05:46:47.716Z,99572.91
2018-10-06T05:49:16.157Z,99566.68
2018-10-06T05:51:44.562Z,99568.02
2018-10-06T05:54:12.989Z,99574.82
2018-10-06T05:56:41.394Z,99575.38
2018-10-06T05:59:09.804Z,99571.88
2018-10-06T06:01:38.224Z,99558.03
2018-10-06T06:04:06.609Z,99565.64
2018-10-06T06:06:35.018Z,99563.18
2018-10-06T06:09:03.790Z,99567.80
2018-10-06T06:11:32.227Z,99572.71
2018-10-06T06:14:00.614Z,99570.81
2018-10-06T06:16:29.113Z,99562.39
2018-10-06T06:18:57.529Z,99562.66
2018-10-06T06:21:25.910Z,99566.45
2018-10-06T06:23:54.349Z,99572.97
2018-10-06T06:26:22.777Z,99569.19
2018-10-06T06:28:51.180Z,99575.69
2018-10-06T06:31:19.737Z,99581.13
2018-10-06T06:33:48.148Z,99580.03
2018-10-06T06:36:16.619Z,99582.75
2018-10-06T06:38:45.121Z,99584.92
2018-10-06T06:41:13.574Z,99577.03
2018-10-06T06:43:42.101Z,99577.56
2018-10-06T06:46:10.602Z,99566.16
2018-10-06T06:48:39.029Z,99568.59
2018-10-06T06:51:07.513Z,99573.48
2018-10-06T06:53:35.909Z,99564.52
2018-10-06T06:56:04.347Z,99568.00
2018-10-06T06:58:32.753Z,99570.17
2018-10-06T07:01:01.239Z,99571.77
2018-10-06T07:03:29.626Z,99580.15
2018-10-06T07:05:58.065Z,99576.81
2018-10-06T07:08:26.460Z,99572.95
2018-10-06T07:10:54.868Z,99566.97
2018-10-06T07:13:23.294Z,99572.57
2018-10-06T07:15:51.744Z,99567.37
2018-10-06T07:18:20.186Z,99569.45
2018-10-06T07:20:48.729Z,99563.11
2018-10-06T07:23:17.128Z,99571.99
2018-10-06T07:25:46.822Z,99564.79
2018-10-06T07:28:15.233Z,99565.98
2018-10-06T07:30:43.617Z,99561.25
2018-10-06T07:33:12.026Z,99559.25
2018-10-06T07:35:40.466Z,99556.36
2018-10-06T07:38:08.910Z,99557.69
2018-10-06T07:40:37.385Z,99554.50
2018-10-06T07:43:05.866Z,99557.02
2018-10-06T07:45:34.302Z,99563.39
2018-10-06T07:48:02.807Z,99567.19
2018-10-06T07:50:31.413Z,99563.64
2018-10-06T07:52:59.972Z,99564.49
2018-10-06T07:55:28.432Z,99556.08
2018-10-06T07:57:57.006Z,99549.83
2018-10-06T08:00:25.483Z,99557.24
2018-10-06T08:02:54.019Z,99556.45
2018-10-06T08:05:22.429Z,99559.76
2018-10-06T08:07:50.967Z,99556.53
2018-10-06T08:10:19.386Z,99555.77
2018-10-06T08:12:47.822Z,99556.45
2018-10-06T08:15:16.303Z,99556.54
2018-10-06T08:17:44.841Z,99555.53
2018-10-06T08:20:13.297Z,99549.51
2018-10-06T08:22:41.757Z,99553.94
2018-10-06T08:25:10.208Z,99556.39
2018-10-06T08:27:38.621Z,99556.92
2018-10-06T08:30:07.038Z,99557.94
2018-10-06T08:32:35.497Z,99558.01
2018-10-06T08:35:03.903Z,99556.27
2018-10-06T08:37:32.396Z,99555.72
2018-10-06T08:40:00.798Z,99556.91
2018-10-06T08:42:29.239Z,99550.57
2018-10-06T08:44:57.622Z,99552.91
2018-10-06T08:47:26.041Z,99548.27
2018-10-06T08:49:54.513Z,99546.64
2018-10-06T08:52:22.969Z,99545.95
2018-10-06T08:54:51.414Z,99553.56
2018-10-06T08:57:19.856Z,99547.69
2018-10-06T08:59:48.278Z,99549.41
2018-10-06T09:02:16.824Z,99548.67
2018-10-06T09:04:45.193Z,99549.50
2018-10-06T09:07:13.645Z,99541.44
2018-10-06T09:09:42.159Z,99538.27
2018-10-06T09:12:10.682Z,99532.77
2018-10-06T09:14:39.136Z,99537.69
2018-10-06T09:17:07.750Z,99540.20
2018-10-06T09:19:36.142Z,99540.23
2018-10-06T09:22:04.574Z,99536.02
2018-10-06T09:24:33.012Z,99535.44
2018-10-06T09:27:01.410Z,99537.32
2018-10-06T09:29:29.821Z,99533.99
2018-10-06T09:31:58.269Z,99523.83
2018-10-06T09:34:27.837Z,99524.72
2018-10-06T09:36:56.553Z,99520.08
2018-10-06T09:39:25.384Z,99515.04
2018-10-06T09:41:54.143Z,99516.55
2018-10-06T09:44:22.648Z,99513.98
2018-10-06T09:46:51.170Z,99518.72
2018-10-06T09:49:19.789Z,99509.31
2018-10-06T09:51:48.458Z,99509.01
2018-10-06T09:54:17.093Z,99508.92
2018-10-06T09:56:45.858Z,99509.73
2018-10-06T09:59:14.380Z,99509.30
2018-10-06T10:01:48.320Z,99498.61
2018-10-06T10:04:17.802Z,99484.86
2018-10-06T10:06:46.411Z,99494.80
2018-10-06T10:09:16.327Z,99487.72
2018-10-06T10:11:44.839Z,99483.77
2018-10-06T10:14:13.320Z,99476.16
2018-10-06T10:16:41.751Z,99478.61
2018-10-06T10:19:10.383Z,99475.28
2018-10-06T10:21:39.036Z,99471.36
2018-10-06T10:24:07.587Z,99472.64
2018-10-06T10:26:36.089Z,99469.20
2018-10-06T10:29:04.650Z,99479.67
2018-10-06T10:31:33.224Z,99484.02
2018-10-06T10:34:01.798Z,99475.52
2018-10-06T10:36:30.218Z,99477.95
2018-10-06T10:38:58.798Z,99481.23
2018-10-06T10:41:27.529Z,99470.76
2018-10-06T10:43:57.573Z,99465.30
2018-10-06T10:46:25.971Z,99469.92
2018-10-06T10:48:54.428Z,99459.94
2018-10-06T10:51:23.007Z,99461.30
2018-10-06T10:53:52.422Z,99460.58
2018-10-06T10:56:21.128Z,99462.55
2018-10-06T10:58:49.785Z,99458.97
2018-10-06T11:01:18.268Z,99453.81
2018-10-06T11:03:48.476Z,99453.82
2018-10-06T11:06:16.990Z,99450.55
2018-10-06T11:08:45.392Z,99447.34
2018-10-06T11:11:13.892Z,99452.97
2018-10-06T11:13:42.256Z,99442.83
2018-10-06T11:16:14.122Z,99448.81
2018-10-06T11:18:42.637Z,99437.73
2018-10-06T11:21:11.033Z,99431.25
2018-10-06T11:23:42.933Z,99427.13
2018-10-06T11:26:28.350Z,99429.45
2018-10-06T11:28:56.808Z,99420.70
2018-10-06T11:31:25.458Z,99416.54
2018-10-06T11:33:54.125Z,99420.97
2018-10-06T11:36:22.594Z,99407.59
2018-10-06T11:38:51.024Z,99420.80
2018-10-06T11:41:19.407Z,99405.34
2018-10-06T11:43:47.803Z,99407.81
2018-10-06T11:46:16.654Z,99389.00
2018-10-06T11:48:45.129Z,99389.88
2018-10-06T11:51:13.584Z,99382.36
2018-10-06T11:53:42.004Z,99389.44
2018-10-06T11:56:10.394Z,99377.89
2018-10-06T11:58:38.788Z,99378.27
2018-10-06T12:01:07.217Z,99367.12
2018-10-06T12:03:35.645Z,99366.94
2018-10-06T12:06:04.070Z,99373.97
2018-10-06T12:08:32.502Z,99371.77
2018-10-06T12:11:01.022Z,99368.70
2018-10-06T12:13:29.513Z,99362.48
2018-10-06T12:15:57.945Z,99362.84
2018-10-06T12:18:26.386Z,99347.11
2018-10-06T12:20:55.025Z,99343.92
2018-10-06T12:23:23.629Z,99349.42
2018-10-06T12:25:52.123Z,99336.63
2018-10-06T12:28:20.502Z,99336.44
2018-10-06T12:30:48.951Z,99345.55
2018-10-06T12:33:17.681Z,99344.77
2018-10-06T12:35:46.359Z,99341.20
2018-10-06T12:38:14.726Z,99338.56
2018-10-06T12:40:43.167Z,99341.44
2018-10-06T12:43:11.591Z,99339.63
2018-10-06T12:45:41.857Z,99334.78
2018-10-06T12:48:10.255Z,99331.73
2018-10-06T12:50:38.707Z,99328.09
2018-10-06T12:53:07.085Z,99322.86
2018-10-06T12:55:35.565Z,99320.47
2018-10-06T12:58:04.002Z,99325.55
2018-10-06T13:00:32.456Z,99325.55
2018-10-06T13:03:00.882Z,99321.03
2018-10-06T13:05:29.350Z,99327.34
2018-10-06T13:07:57.813Z,99319.80
2018-10-06T13:10:26.253Z,99311.11
2018-10-06T13:12:54.666Z,99308.61
2018-10-06T13:15:23.118Z,99309.73
2018-10-06T13:17:51.632Z,99323.18
2018-10-06T13:20:20.038Z,99305.42
2018-10-06T13:22:48.566Z,99309.03
2018-10-06T13:25:16.985Z,99300.98
2018-10-06T13:27:45.437Z,99304.33
2018-10-06T13:30:13.917Z,99310.95
2018-10-06T13:32:42.356Z,99312.95
2018-10-06T13:35:11.626Z,99304.12
2018-10-06T13:37:40.089Z,99306.32
2018-10-06T13:40:08.566Z,99302.69
2018-10-06T13:42:37.004Z,99302.94
2018-10-06T13:45:05.688Z,99305.34
2018-10-06T13:47:34.081Z,99296.17
2018-10-06T13:50:02.845Z,99294.58
2018-10-06T13:52:31.294Z,99303.16
2018-10-06T13:54:59.747Z,99298.13
2018-10-06T13:57:28.248Z,99298.57
2018-10-06T13:59:56.954Z,99298.52
2018-10-06T14:02:25.992Z,99293.38
2018-10-06T14:04:54.390Z,99288.34
2018-10-06T14:07:22.798Z,99293.28
2018-10-06T14:09:51.206Z,99289.55
2018-10-06T14:12:19.688Z,99280.03
2018-10-06T14:14:48.150Z,99280.78
2018-10-06T14:17:16.589Z,99274.62
2018-10-06T14:19:45.023Z,99265.83
2018-10-06T14:22:13.505Z,99269.27
2018-10-06T14:24:42.673Z,99263.10
2018-10-06T14:27:11.133Z,99261.45
2018-10-06T14:29:40.646Z,99261.86
2018-10-06T14:32:09.074Z,99256.07
2018-10-06T14:34:37.462Z,99263.63
2018-10-06T14:37:05.973Z,99258.48
2018-10-06T14:39:39.426Z,99258.25
2018-10-06T14:42:08.124Z,99251.41
2018-10-06T14:44:36.545Z,99262.61
2018-10-06T14:47:05.006Z,99258.39
2018-10-06T14:49:33.380Z,99253.53
2018-10-06T14:52:01.769Z,99253.79
2018-10-06T14:54:30.175Z,99255.41
2018-10-06T14:56:59.158Z,99253.20
2018-10-06T14:59:27.505Z,99244.17
2018-10-06T15:01:55.920Z,99241.52
2018-10-06T15:04:24.364Z,99245.30
2018-10-06T15:06:52.797Z,99251.36
2018-10-06T15:09:21.182Z,99243.56
2018-10-06T15:11:49.613Z,99248.05
2018-10-06T15:14:18.121Z,99239.64
2018-10-06T15:16:46.600Z,99242.03
2018-10-06T15:19:15.034Z,99243.86
2018-10-06T15:21:43.463Z,99242.06
2018-10-06T15:24:11.838Z,99236.67
2018-10-06T15:26:40.305Z,99242.82
2018-10-06T15:29:08.726Z,99233.53
2018-10-06T15:31:37.260Z,99234.74
2018-10-06T15:34:05.697Z,99237.69
2018-10-06T15:36:34.187Z,99238.16
2018-10-06T15:39:02.608Z,99233.80
2018-10-06T15:41:31.025Z,99231.73
2018-10-06T15:43:59.438Z,99234.78
2018-10-06T15:46:29.219Z,99236.88
2018-10-06T15:48:58.022Z,99231.00
2018-10-06T15:51:26.775Z,99235.00
2018-10-06T15:53:55.265Z,99230.44
2018-10-06T15:56:23.813Z,99226.33
2018-10-06T15:58:52.237Z,99227.97
2018-10-06T16:01:21.064Z,99222.86
2018-10-06T16:03:49.499Z,99224.99
2018-10-06T16:06:17.995Z,99228.24
2018-10-06T16:08:46.497Z,99226.04
2018-10-06T16:11:14.937Z,99225.89
2018-10-06T16:13:43.463Z,99222.19
2018-10-06T16:16:11.900Z,99228.34
2018-10-06T16:18:40.371Z,99230.64
2018-10-06T16:21:08.869Z,99225.11
2018-10-06T16:23:37.463Z,99224.34
2018-10-06T16:26:05.849Z,99224.34
2018-10-06T16:28:34.221Z,99230.02
2018-10-06T16:31:02.649Z,99234.13
2018-10-06T16:33:31.143Z,99225.10
2018-10-06T16:35:59.490Z,99224.45
2018-10-06T16:38:27.930Z,99225.15
2018-10-06T16:40:56.359Z,99229.24
2018-10-06T16:43:24.775Z,99227.51
2018-10-06T16:45:53.250Z,99222.24
2018-10-06T16:48:28.017Z,99222.95
2018-10-06T16:50:56.400Z,99225.53
2018-10-06T16:53:24.795Z,99219.56
2018-10-06T16:55:53.201Z,99223.77
2018-10-06T16:58:21.669Z,99223.17
2018-10-06T17:00:50.104Z,99222.22
2018-10-06T17:03:18.547Z,99231.39
2018-10-06T17:05:47.029Z,99238.02
2018-10-06T17:08:15.442Z,99236.34
2018-10-06T17:10:43.866Z,99242.60
2018-10-06T17:13:12.272Z,99247.84
2018-10-06T17:15:40.703Z,99249.78
2018-10-06T17:18:09.149Z,99254.11
2018-10-06T17:20:37.578Z,99254.53
2018-10-06T17:23:06.057Z,99260.89
2018-10-06T17:25:34.448Z,99259.23
2018-10-06T17:28:02.911Z,99265.81
2018-10-06T17:30:31.357Z,99262.75
2018-10-06T17:32:59.822Z,99263.37
2018-10-06T17:35:28.250Z,99270.83
2018-10-06T17:37:56.710Z,99273.85
2018-10-06T17:40:25.127Z,99274.92
2018-10-06T17:42:53.542Z,99272.43
2018-10-06T17:45:22.000Z,99273.33
2018-10-06T17:47:50.425Z,99283.30
2018-10-06T17:50:18.919Z,99287.33
2018-10-06T17:52:47.271Z,99290.77
2018-10-06T17:55:15.694Z,99289.44
2018-10-06T17:57:44.199Z,99292.27
2018-10-06T18:00:12.701Z,99295.36
2018-10-06T18:02:41.171Z,99299.45
2018-10-06T18:05:09.603Z,99297.38
2018-10-06T18:07:38.038Z,99298.02
2018-10-06T18:10:06.502Z,99301.81
2018-10-06T18:12:34.948Z,99298.73
2018-10-06T18:15:03.377Z,99298.43
2018-10-06T18:17:31.814Z,99300.83
2018-10-06T18:20:00.221Z,99310.74
2018-10-06T18:22:28.766Z,99299.73
2018-10-06T18:24:57.161Z,99309.38
2018-10-06T18:27:25.576Z,99280.78
2018-10-06T18:29:54.191Z,99311.25
2018-10-06T18:32:22.597Z,99304.72
2018-10-06T18:34:50.989Z,99312.81
2018-10-06T18:37:19.649Z,99311.27
2018-10-06T18:39:48.791Z,99319.44
2018-10-06T18:42:17.318Z,99309.48
2018-10-06T18:44:45.752Z,99310.59
2018-10-06T18:47:14.194Z,99320.88
2018-10-06T18:49:42.609Z,99322.81
2018-10-06T18:52:11.053Z,99318.14
2018-10-06T18:54:39.688Z,99317.80
2018-10-06T18:57:08.271Z,99323.13
2018-10-06T18:59:36.714Z,99325.39
2018-10-06T19:02:05.137Z,99328.91
2018-10-06T19:04:34.598Z,99329.58
2018-10-06T19:07:03.002Z,99333.43
2018-10-06T19:09:31.563Z,99342.75
2018-10-06T19:11:59.965Z,99346.08
2018-10-06T19:14:28.564Z,99349.36
2018-10-06T19:16:57.037Z,99348.20
2018-10-06T19:19:25.561Z,99347.20
2018-10-06T19:21:54.163Z,99351.74
2018-10-06T19:24:22.589Z,99346.16
2018-10-06T19:26:51.469Z,99348.80
2018-10-06T19:29:19.887Z,99354.67
2018-10-06T19:31:48.585Z,99351.02
2018-10-06T19:34:17.078Z,99357.90
2018-10-06T19:36:45.592Z,99358.64
2018-10-06T19:39:20.776Z,99364.02
2018-10-06T19:41:51.859Z,99364.88
2018-10-06T19:44:20.415Z,99362.81
2018-10-06T19:46:52.736Z,99364.63
2018-10-06T19:49:22.570Z,99370.99
2018-10-06T19:51:51.038Z,99375.25
2018-10-06T19:54:20.157Z,99373.12
2018-10-06T19:56:48.588Z,99370.13
2018-10-06T19:59:17.039Z,99373.67
2018-10-06T20:01:45.495Z,99374.30
2018-10-06T20:04:13.965Z,99369.41
2018-10-06T20:06:42.381Z,99377.41
2018-10-06T20:09:11.570Z,99368.53
2018-10-06T20:11:40.046Z,99370.39
2018-10-06T20:14:08.764Z,99370.08
2018-10-06T20:16:38.398Z,99374.17
2018-10-06T20:19:06.972Z,99382.09
2018-10-06T20:21:35.725Z,99374.67
2018-10-06T20:24:04.206Z,99376.86
2018-10-06T20:26:32.615Z,99382.22
2018-10-06T20:29:01.059Z,99383.13
2018-10-06T20:31:29.514Z,99386.97
2018-10-06T20:33:57.998Z,99394.41
2018-10-06T20:36:26.482Z,99397.18
2018-10-06T20:38:54.917Z,99401.95
2018-10-06T20:41:23.341Z,99397.86
2018-10-06T20:43:51.832Z,99397.78
2018-10-06T20:46:20.350Z,99397.42
2018-10-06T20:48:48.747Z,99398.02
2018-10-06T20:51:17.129Z,99407.36
2018-10-06T20:53:45.602Z,99406.81
2018-10-06T20:56:14.034Z,99402.70
2018-10-06T20:58:42.885Z,99404.48
2018-10-06T21:01:11.319Z,99408.27
2018-10-06T21:03:40.092Z,99408.00
2018-10-06T21:06:08.525Z,99407.26
2018-10-06T21:08:36.983Z,99404.12
2018-10-06T21:11:05.470Z,99404.67
2018-10-06T21:13:33.960Z,99409.99
2018-10-06T21:16:02.421Z,99405.94
2018-10-06T21:18:30.989Z,99401.03
2018-10-06T21:20:59.350Z,99401.00
2018-10-06T21:23:27.760Z,99401.00
2018-10-06T21:25:56.197Z,99399.36
2018-10-06T21:28:24.673Z,99400.50
2018-10-06T21:30:53.119Z,99396.33
2018-10-06T21:33:21.525Z,99398.63
2018-10-06T21:35:49.995Z,99403.19
2018-10-06T21:38:18.466Z,99402.87
2018-10-06T21:40:46.929Z,99402.52
2018-10-06T21:43:15.352Z,99405.09
2018-10-06T21:45:44.165Z,99407.34
2018-10-06T21:48:12.613Z,99405.95
2018-10-06T21:50:41.070Z,99415.35
2018-10-06T21:53:09.476Z,99408.77
2018-10-06T21:55:37.890Z,99413.53
2018-10-06T21:58:06.366Z,99415.36
2018-10-06T22:00:34.890Z,99413.33
2018-10-06T22:03:03.337Z,99417.02
2018-10-06T22:05:31.869Z,99413.82
2018-10-06T22:08:00.345Z,99410.03
2018-10-06T22:10:28.805Z,99411.34
2018-10-06T22:12:57.261Z,99412.94
2018-10-06T22:15:25.697Z,99413.76
2018-10-06T22:17:54.169Z,99405.91
2018-10-06T22:20:22.620Z,99407.61
2018-10-06T22:22:51.115Z,99402.78
2018-10-06T22:25:19.605Z,99401.44
2018-10-06T22:27:48.263Z,99411.05
2018-10-06T22:30:16.693Z,99410.91
2018-10-06T22:32:45.090Z,99410.69
2018-10-06T22:35:13.526Z,99425.52
2018-10-06T22:37:41.925Z,99430.32
2018-10-06T22:40:10.329Z,99438.70
2018-10-06T22:42:38.763Z,99440.34
2018-10-06T22:45:07.442Z,99450.28
2018-10-06T22:47:36.094Z,99456.33
2018-10-06T22:50:05.123Z,99449.34
2018-10-06T22:52:33.541Z,99457.09
2018-10-06T22:55:02.067Z,99458.45
2018-10-06T22:57:30.470Z,99458.30
2018-10-06T22:59:58.984Z,99449.69
2018-10-06T23:02:27.405Z,99442.11
2018-10-06T23:04:55.885Z,99448.74
2018-10-06T23:07:24.291Z,99449.09
2018-10-06T23:09:52.705Z,99453.20
2018-10-06T23:12:21.105Z,99448.44
2018-10-06T23:14:49.653Z,99455.18
2018-10-06T23:17:18.055Z,99462.37
2018-10-06T23:19:46.578Z,99469.16
2018-10-06T23:22:15.014Z,99472.33
2018-10-06T23:24:43.459Z,99472.59
2018-10-06T23:27:11.878Z,99478.46
2018-10-06T23:29:40.318Z,99475.19
2018-10-06T23:32:08.736Z,99469.56
2018-10-06T23:34:37.134Z,99467.59
2018-10-06T23:37:05.570Z,99474.13
2018-10-06T23:39:34.009Z,99468.80
2018-10-06T23:42:02.629Z,99466.99
2018-10-06T23:44:31.037Z,99469.54
2018-10-06T23:46:59.486Z,99474.84
2018-10-06T23:49:27.910Z,99482.78
2018-10-06T23:51:56.317Z,99485.45
2018-10-06T23:54:24.716Z,99488.17
2018-10-06T23:56:53.138Z,99492.51
2018-10-06T23:59:21.522Z,99494.27
